Time;durP1;ratioP1;P1;durP2;ratioP2;P2;SDS_P1;SDS_P2;PMS_P1;PMS_P2;Temp;Humidity;BMP_temperature;BMP_pressure;BME280_temperature;BME280_humidity;BME280_pressure;Samples;Min_cycle;Max_cycle;Signal;HPM_P1;HPM_P2
2023/07/29 00:00:03;;;;;;;;;;;;;;;;;;2081465;28;19913;-81
2023/07/29 00:01:23;;;;;;;;;;;;;;;;;;2080806;28;19913;-80
2023/07/29 00:02:44;;;;;;;;;;;;;;;;;;2089436;28;19987;-80
2023/07/29 00:04:05;;;;;;;;;;;;;;;;;;2101917;28;19912;-80
2023/07/29 00:05:26;;;;;;;;;;;;;;;;;;2082939;28;19913;-80
2023/07/29 00:06:47;;;;;;;;;;;;;;;;;;2082277;28;19921;-80
2023/07/29 00:08:08;;;;;;;;;;;;;;;;;;2086076;28;19916;-80
2023/07/29 00:09:28;;;;;;;;;;;;;;;;;;2089422;28;19924;-80
2023/07/29 00:10:49;;;;;;;;;;;;;;;;;;2087099;28;20279;-80
2023/07/29 00:12:10;;;;;;;;;;;;;;;;;;2087039;28;19923;-79
2023/07/29 00:13:30;;;;;;;;;;;;;;;;;;2078910;28;19913;-80
2023/07/29 00:14:51;;;;;;;;;;;;;;;;;;2082686;28;19967;-80
2023/07/29 00:16:12;;;;;;;;;;;;;;;;;;2078518;28;19929;-81
2023/07/29 00:17:32;;;;;;;;;;;;;;;;;;2074377;28;20280;-81
2023/07/29 00:18:53;;;;;;;;;;;;;;;;;;2083416;28;19917;-81
2023/07/29 00:20:15;;;;;;;;;;;;;;;;;;2088088;28;19924;-81
2023/07/29 00:21:35;;;;;;;;;;;;;;;;;;2084203;28;19920;-81
2023/07/29 00:22:58;;;;;;;;;;;;;;;;;;2074553;28;20319;-81
2023/07/29 00:24:18;;;;;;;;;;;;;;;;;;2092458;28;19962;-81
2023/07/29 00:25:39;;;;;;;;;;;;;;;;;;2081424;28;20304;-81
2023/07/29 00:27:00;;;;;;;;;;;;;;;;;;2070197;28;19909;-81
2023/07/29 00:28:20;;;;;;;;;;;;;;;;;;2083936;28;19928;-80
2023/07/29 00:29:41;;;;;;;;;;;;;;;;;;2092398;28;20191;-80
2023/07/29 00:31:02;;;;;;;;;;;;;;;;;;2088061;28;19921;-81
2023/07/29 00:32:22;;;;;;;;;;;;;;;;;;2079512;28;20369;-81
2023/07/29 00:33:43;;;;;;;;;;;;;;;;;;2089965;28;19956;-81
2023/07/29 00:35:04;;;;;;;;;;;;;;;;;;2078030;28;20377;-81
2023/07/29 00:36:24;;;;;;;;;;;;;;;;;;2065883;28;19910;-81
2023/07/29 00:37:45;;;;;;;;;;;;;;;;;;2077851;28;20360;-81
2023/07/29 00:39:06;;;;;;;;;;;;;;;;;;2081746;28;19932;-81
2023/07/29 00:40:26;;;;;;;;;;;;;;;;;;2083876;28;19917;-81
2023/07/29 00:41:47;;;;;;;;;;;;;;;;;;2088922;28;20391;-80
2023/07/29 00:43:08;;;;;;;;;;;;;;;;;;2094171;28;19917;-80
2023/07/29 00:44:28;;;;;;;;;;;;;;;;;;2089191;28;19974;-81
2023/07/29 00:45:49;;;;;;;;;;;;;;;;;;2098220;28;19909;-81
2023/07/29 00:47:10;;;;;;;;;;;;;;;;;;2091481;28;20434;-81
2023/07/29 00:48:31;;;;;;;;;;;;;;;;;;2081180;28;19921;-81
2023/07/29 00:49:51;;;;;;;;;;;;;;;;;;2089600;28;19909;-81
2023/07/29 00:51:12;;;;;;;;;;;;;;;;;;2081177;28;19926;-81
2023/07/29 00:52:33;;;;;;;;;;;;;;;;;;2078901;28;19920;-80
2023/07/29 00:53:53;;;;;;;;;;;;;;;;;;2089694;28;19913;-81
2023/07/29 00:55:14;;;;;;;;;;;;;;;;;;2088725;28;20012;-81
2023/07/29 00:56:35;;;;;;;;;;;;;;;;;;2081321;28;20419;-81
2023/07/29 00:57:56;;;;;;;;;;;;;;;;;;2085973;28;20379;-80
2023/07/29 00:59:16;;;;;;;;;;;;;;;;;;2081493;28;19916;-81
2023/07/29 01:00:37;;;;;;;;;;;;;;;;;;2084729;28;19924;-81
2023/07/29 01:01:58;;;;;;;;;;;;;;;;;;2072726;28;19909;-80
2023/07/29 01:03:18;;;;;;;;;;;;;;;;;;2072725;28;19909;-80
2023/07/29 01:04:39;;;;;;;;;;;;;;;;;;2077157;28;19913;-80
2023/07/29 01:06:00;;;;;;;;;;;;;;;;;;2081812;28;19909;-80
2023/07/29 01:07:20;;;;;;;;;;;;;;;;;;2082564;28;19913;-80
2023/07/29 01:08:41;;;;;;;;;;;;;;;;;;2081537;28;19909;-80
2023/07/29 01:10:02;;;;;;;;;;;;;;;;;;2089543;28;20426;-80
2023/07/29 01:11:23;;;;;;;;;;;;;;;;;;2083087;28;19921;-80
2023/07/29 01:12:45;;;;;;;;;;;;;;;;;;2096449;28;19912;-80
2023/07/29 01:14:06;;;;;;;;;;;;;;;;;;2097195;28;19909;-80
2023/07/29 01:15:26;;;;;;;;;;;;;;;;;;2084935;28;20379;-81
2023/07/29 01:16:47;;;;;;;;;;;;;;;;;;2087856;28;19947;-80
2023/07/29 01:18:08;;;;;;;;;;;;;;;;;;2095348;28;20342;-80
2023/07/29 01:19:28;;;;;;;;;;;;;;;;;;2081612;28;19913;-80
2023/07/29 01:20:49;;;;;;;;;;;;;;;;;;2086202;28;19917;-80
2023/07/29 01:22:10;;;;;;;;;;;;;;;;;;2082829;28;19909;-80
2023/07/29 01:23:30;;;;;;;;;;;;;;;;;;2081260;28;19913;-80
2023/07/29 01:24:51;;;;;;;;;;;;;;;;;;2073381;28;19920;-80
2023/07/29 01:26:12;;;;;;;;;;;;;;;;;;2072937;28;20276;-79
2023/07/29 01:27:33;;;;;;;;;;;;;;;;;;2084954;28;19987;-80
2023/07/29 01:28:53;;;;;;;;;;;;;;;;;;2084500;28;19917;-80
2023/07/29 01:30:14;;;;;;;;;;;;;;;;;;2081169;28;19909;-79
2023/07/29 01:31:35;;;;;;;;;;;;;;;;;;2073228;28;20327;-79
2023/07/29 01:32:56;;;;;;;;;;;;;;;;;;2072459;28;19965;-80
2023/07/29 01:34:16;;;;;;;;;;;;;;;;;;2078805;28;19963;-80
2023/07/29 01:35:37;;;;;;;;;;;;;;;;;;2088555;28;19909;-81
2023/07/29 01:36:58;;;;;;;;;;;;;;;;;;2089587;28;19909;-80
2023/07/29 01:38:19;;;;;;;;;;;;;;;;;;2071390;28;20365;-80
2023/07/29 01:39:39;;;;;;;;;;;;;;;;;;2080603;28;19913;-80
2023/07/29 01:41:01;;;;;;;;;;;;;;;;;;2095855;28;20449;-80
2023/07/29 01:42:22;;;;;;;;;;;;;;;;;;2093654;28;19917;-81
2023/07/29 01:43:43;;;;;;;;;;;;;;;;;;2091052;28;20389;-80
2023/07/29 01:45:04;;;;;;;;;;;;;;;;;;2098290;28;19917;-81
2023/07/29 01:46:25;;;;;;;;;;;;;;;;;;2084741;28;20470;-80
2023/07/29 01:47:46;;;;;;;;;;;;;;;;;;2088254;28;19916;-81
2023/07/29 01:49:07;;;;;;;;;;;;;;;;;;2092914;28;20403;-80
2023/07/29 01:50:27;;;;;;;;;;;;;;;;;;2097418;28;19916;-80
2023/07/29 01:51:48;;;;;;;;;;;;;;;;;;2092261;28;19908;-81
2023/07/29 01:53:09;;;;;;;;;;;;;;;;;;2090820;28;19909;-80
2023/07/29 01:54:29;;;;;;;;;;;;;;;;;;2090876;28;19913;-80
2023/07/29 01:55:50;;;;;;;;;;;;;;;;;;2086272;28;19916;-80
2023/07/29 01:57:11;;;;;;;;;;;;;;;;;;2091074;28;19909;-80
2023/07/29 01:58:31;;;;;;;;;;;;;;;;;;2100908;28;19962;-80
2023/07/29 01:59:52;;;;;;;;;;;;;;;;;;2086704;28;19910;-81
2023/07/29 02:01:13;;;;;;;;;;;;;;;;;;2087487;28;20399;-81
2023/07/29 02:02:34;;;;;;;;;;;;;;;;;;2081418;28;19913;-81
2023/07/29 02:03:55;;;;;;;;;;;;;;;;;;2079313;28;19926;-80
2023/07/29 02:05:15;;;;;;;;;;;;;;;;;;2084564;28;19909;-81
2023/07/29 02:06:36;;;;;;;;;;;;;;;;;;2090657;28;19913;-80
2023/07/29 02:07:57;;;;;;;;;;;;;;;;;;2083096;28;20351;-79
2023/07/29 02:09:18;;;;;;;;;;;;;;;;;;2095512;28;19927;-80
2023/07/29 02:10:38;;;;;;;;;;;;;;;;;;2091827;28;19940;-81
2023/07/29 02:11:59;;;;;;;;;;;;;;;;;;2092123;28;19908;-82
2023/07/29 02:13:20;;;;;;;;;;;;;;;;;;2075594;28;19914;-80
2023/07/29 02:14:40;;;;;;;;;;;;;;;;;;2090482;28;19916;-80
2023/07/29 02:16:01;;;;;;;;;;;;;;;;;;2089348;28;19933;-80
2023/07/29 02:17:22;;;;;;;;;;;;;;;;;;2081146;28;19916;-81
2023/07/29 02:18:42;;;;;;;;;;;;;;;;;;2087456;28;19920;-80
2023/07/29 02:20:03;;;;;;;;;;;;;;;;;;2082255;28;19914;-80
2023/07/29 02:21:24;;;;;;;;;;;;;;;;;;2088692;28;19932;-80
2023/07/29 02:22:45;;;;;;;;;;;;;;;;;;2099624;28;19915;-81
2023/07/29 02:24:05;;;;;;;;;;;;;;;;;;2098892;28;19915;-80
2023/07/29 02:25:26;;;;;;;;;;;;;;;;;;2089267;28;19909;-80
2023/07/29 02:26:47;;;;;;;;;;;;;;;;;;2087977;28;21025;-81
2023/07/29 02:28:08;;;;;;;;;;;;;;;;;;2099759;28;19919;-80
2023/07/29 02:29:30;;;;;;;;;;;;;;;;;;2085889;28;19986;-81
2023/07/29 02:30:51;;;;;;;;;;;;;;;;;;2088524;28;20368;-80
2023/07/29 02:32:11;;;;;;;;;;;;;;;;;;2083402;28;19909;-80
2023/07/29 02:33:32;;;;;;;;;;;;;;;;;;2080692;28;19909;-80
2023/07/29 02:34:53;;;;;;;;;;;;;;;;;;2082009;28;19920;-81
2023/07/29 02:36:13;;;;;;;;;;;;;;;;;;2087529;28;20534;-80
2023/07/29 02:37:34;;;;;;;;;;;;;;;;;;2081929;28;20376;-81
2023/07/29 02:38:55;;;;;;;;;;;;;;;;;;2085824;28;19908;-81
2023/07/29 02:40:16;;;;;;;;;;;;;;;;;;2080866;28;19909;-81
2023/07/29 02:41:37;;;;;;;;;;;;;;;;;;2086767;28;19925;-80
2023/07/29 02:42:57;;;;;;;;;;;;;;;;;;2089921;28;19985;-80
2023/07/29 02:44:19;;;;;;;;;;;;;;;;;;2084377;28;19988;-80
2023/07/29 02:45:40;;;;;;;;;;;;;;;;;;2082266;28;20380;-80
2023/07/29 02:47:01;;;;;;;;;;;;;;;;;;2083328;28;20345;-80
2023/07/29 02:48:22;;;;;;;;;;;;;;;;;;2081724;28;19909;-81
2023/07/29 02:49:42;;;;;;;;;;;;;;;;;;2080642;28;19921;-80
2023/07/29 02:51:03;;;;;;;;;;;;;;;;;;2078422;28;19913;-80
2023/07/29 02:52:24;;;;;;;;;;;;;;;;;;2072862;28;20369;-80
2023/07/29 02:53:44;;;;;;;;;;;;;;;;;;2074287;28;19913;-80
2023/07/29 02:55:05;;;;;;;;;;;;;;;;;;2074050;28;20211;-80
2023/07/29 02:56:26;;;;;;;;;;;;;;;;;;2074310;28;19910;-81
2023/07/29 02:57:47;;;;;;;;;;;;;;;;;;2085201;28;19909;-80
2023/07/29 02:59:07;;;;;;;;;;;;;;;;;;2076475;28;20354;-80
2023/07/29 03:00:28;;;;;;;;;;;;;;;;;;2079872;28;19955;-80
2023/07/29 03:01:49;;;;;;;;;;;;;;;;;;2083639;28;19921;-80
2023/07/29 03:03:09;;;;;;;;;;;;;;;;;;2089859;28;19984;-80
2023/07/29 03:04:30;;;;;;;;;;;;;;;;;;2076352;28;19916;-81
2023/07/29 03:05:51;;;;;;;;;;;;;;;;;;2064237;28;19914;-81
2023/07/29 03:07:12;;;;;;;;;;;;;;;;;;2071241;28;19960;-80
2023/07/29 03:08:32;;;;;;;;;;;;;;;;;;2075414;28;19917;-81
2023/07/29 03:09:53;;;;;;;;;;;;;;;;;;2082008;28;20166;-80
2023/07/29 03:11:14;;;;;;;;;;;;;;;;;;2079299;28;19921;-80
2023/07/29 03:12:34;;;;;;;;;;;;;;;;;;2083686;28;19920;-80
2023/07/29 03:13:56;;;;;;;;;;;;;;;;;;2078841;28;19925;-81
2023/07/29 03:15:17;;;;;;;;;;;;;;;;;;2079396;28;19909;-81
2023/07/29 03:16:37;;;;;;;;;;;;;;;;;;2091236;28;19913;-81
2023/07/29 03:17:58;;;;;;;;;;;;;;;;;;2075799;28;19917;-81
2023/07/29 03:19:19;;;;;;;;;;;;;;;;;;2080268;28;20292;-80
2023/07/29 03:20:40;;;;;;;;;;;;;;;;;;2080813;28;19916;-80
2023/07/29 03:22:01;;;;;;;;;;;;;;;;;;2078376;28;19936;-81
2023/07/29 03:23:21;;;;;;;;;;;;;;;;;;2081728;28;19913;-80
2023/07/29 03:24:42;;;;;;;;;;;;;;;;;;2081253;28;19909;-81
2023/07/29 03:26:09;;;;;;;;;;;;;;;;;;2081516;28;19913;-80
2023/07/29 03:27:30;;;;;;;;;;;;;;;;;;2080869;28;20284;-80
2023/07/29 03:28:51;;;;;;;;;;;;;;;;;;2083128;28;19917;-80
2023/07/29 03:30:11;;;;;;;;;;;;;;;;;;2081638;28;19979;-80
2023/07/29 03:31:32;;;;;;;;;;;;;;;;;;2078648;28;19960;-80
2023/07/29 03:32:53;;;;;;;;;;;;;;;;;;2088957;28;19919;-80
2023/07/29 03:34:13;;;;;;;;;;;;;;;;;;2084823;28;19993;-81
2023/07/29 03:35:34;;;;;;;;;;;;;;;;;;2080171;28;19909;-81
2023/07/29 03:36:55;;;;;;;;;;;;;;;;;;2081341;28;19921;-80
2023/07/29 03:38:16;;;;;;;;;;;;;;;;;;2082478;28;19909;-81
2023/07/29 03:39:37;;;;;;;;;;;;;;;;;;2082836;28;19916;-80
2023/07/29 03:40:58;;;;;;;;;;;;;;;;;;2087237;28;20257;-80
2023/07/29 03:42:18;;;;;;;;;;;;;;;;;;2089378;28;19916;-80
2023/07/29 03:43:39;;;;;;;;;;;;;;;;;;2084602;28;19912;-81
2023/07/29 03:45:00;;;;;;;;;;;;;;;;;;2087465;28;19916;-80
2023/07/29 03:46:22;;;;;;;;;;;;;;;;;;2089228;28;19932;-80
2023/07/29 03:47:42;;;;;;;;;;;;;;;;;;2089294;28;19913;-81
2023/07/29 03:49:03;;;;;;;;;;;;;;;;;;2092440;28;19909;-81
2023/07/29 03:50:24;;;;;;;;;;;;;;;;;;2091234;28;19936;-80
2023/07/29 03:51:45;;;;;;;;;;;;;;;;;;2090571;28;19917;-80
2023/07/29 03:53:06;;;;;;;;;;;;;;;;;;2090289;28;19931;-80
2023/07/29 03:54:26;;;;;;;;;;;;;;;;;;2090372;28;20291;-80
2023/07/29 03:55:47;;;;;;;;;;;;;;;;;;2081100;28;19920;-81
2023/07/29 03:57:08;;;;;;;;;;;;;;;;;;2073511;28;19932;-81
2023/07/29 03:58:28;;;;;;;;;;;;;;;;;;2078780;28;19909;-81
2023/07/29 03:59:49;;;;;;;;;;;;;;;;;;2083070;28;19909;-81
2023/07/29 04:01:10;;;;;;;;;;;;;;;;;;2071919;28;19909;-80
2023/07/29 04:02:31;;;;;;;;;;;;;;;;;;2079274;28;19932;-80
2023/07/29 04:03:52;;;;;;;;;;;;;;;;;;2083377;28;19916;-80
2023/07/29 04:05:12;;;;;;;;;;;;;;;;;;2095632;28;19912;-80
2023/07/29 04:06:33;;;;;;;;;;;;;;;;;;2099935;28;20367;-80
2023/07/29 04:07:54;;;;;;;;;;;;;;;;;;2105636;28;19912;-80
2023/07/29 04:09:14;;;;;;;;;;;;;;;;;;2095282;28;19917;-81
2023/07/29 04:10:35;;;;;;;;;;;;;;;;;;2088674;28;19968;-80
2023/07/29 04:11:56;;;;;;;;;;;;;;;;;;2082886;28;19928;-80
2023/07/29 04:13:17;;;;;;;;;;;;;;;;;;2095834;28;19998;-79
2023/07/29 04:14:37;;;;;;;;;;;;;;;;;;2097420;28;19916;-80
2023/07/29 04:15:58;;;;;;;;;;;;;;;;;;2097806;28;19912;-80
2023/07/29 04:17:19;;;;;;;;;;;;;;;;;;2088430;28;19916;-81
2023/07/29 04:18:39;;;;;;;;;;;;;;;;;;2087650;28;19909;-80
2023/07/29 04:20:00;;;;;;;;;;;;;;;;;;2074676;28;19913;-80
2023/07/29 04:21:21;;;;;;;;;;;;;;;;;;2086301;28;19928;-80
2023/07/29 04:22:41;;;;;;;;;;;;;;;;;;2089105;28;20315;-81
2023/07/29 04:24:02;;;;;;;;;;;;;;;;;;2076563;28;19921;-80
2023/07/29 04:25:24;;;;;;;;;;;;;;;;;;2079447;28;19963;-81
2023/07/29 04:26:45;;;;;;;;;;;;;;;;;;2088074;28;19982;-80
2023/07/29 04:28:05;;;;;;;;;;;;;;;;;;2089108;28;20287;-81
2023/07/29 04:29:26;;;;;;;;;;;;;;;;;;2096853;28;19909;-80
2023/07/29 04:30:47;;;;;;;;;;;;;;;;;;2088113;28;19916;-80
2023/07/29 04:32:07;;;;;;;;;;;;;;;;;;2087401;28;19924;-80
2023/07/29 04:33:28;;;;;;;;;;;;;;;;;;2074639;28;19932;-80
2023/07/29 04:34:49;;;;;;;;;;;;;;;;;;2079829;28;19910;-80
2023/07/29 04:36:10;;;;;;;;;;;;;;;;;;2079869;28;19913;-81
2023/07/29 04:37:31;;;;;;;;;;;;;;;;;;2079738;28;19928;-80
2023/07/29 04:38:51;;;;;;;;;;;;;;;;;;2072184;28;19916;-81
2023/07/29 04:40:12;;;;;;;;;;;;;;;;;;2079607;28;19932;-80
2023/07/29 04:41:33;;;;;;;;;;;;;;;;;;2081356;28;19940;-80
2023/07/29 04:42:53;;;;;;;;;;;;;;;;;;2088312;28;19924;-80
2023/07/29 04:44:14;;;;;;;;;;;;;;;;;;2081897;28;19913;-80
2023/07/29 04:45:35;;;;;;;;;;;;;;;;;;2082294;28;20243;-80
2023/07/29 04:46:55;;;;;;;;;;;;;;;;;;2082225;28;19909;-81
2023/07/29 04:48:16;;;;;;;;;;;;;;;;;;2088984;28;20290;-80
2023/07/29 04:49:37;;;;;;;;;;;;;;;;;;2084118;28;19925;-80
2023/07/29 04:50:57;;;;;;;;;;;;;;;;;;2089135;28;19913;-80
2023/07/29 04:52:19;;;;;;;;;;;;;;;;;;2083227;28;19943;-80
2023/07/29 04:53:40;;;;;;;;;;;;;;;;;;2079778;28;19917;-80
2023/07/29 04:55:01;;;;;;;;;;;;;;;;;;2080598;28;19913;-81
2023/07/29 04:56:21;;;;;;;;;;;;;;;;;;2080461;28;19909;-80
2023/07/29 04:57:42;;;;;;;;;;;;;;;;;;2086566;28;19939;-80
2023/07/29 04:59:03;;;;;;;;;;;;;;;;;;2089108;28;20284;-81
2023/07/29 05:00:24;;;;;;;;;;;;;;;;;;2075576;28;19928;-80
2023/07/29 05:01:45;;;;;;;;;;;;;;;;;;2087110;28;19920;-80
2023/07/29 05:03:06;;;;;;;;;;;;;;;;;;2104313;28;19908;-81
2023/07/29 05:04:27;;;;;;;;;;;;;;;;;;2101077;28;20322;-81
2023/07/29 05:05:48;;;;;;;;;;;;;;;;;;2096684;28;19920;-81
2023/07/29 05:07:09;;;;;;;;;;;;;;;;;;2076391;28;19909;-80
2023/07/29 05:08:29;;;;;;;;;;;;;;;;;;2082756;28;19924;-81
2023/07/29 05:09:50;;;;;;;;;;;;;;;;;;2081522;28;19920;-81
2023/07/29 05:11:11;;;;;;;;;;;;;;;;;;2077243;28;19922;-81
2023/07/29 05:12:32;;;;;;;;;;;;;;;;;;2086036;28;19987;-82
2023/07/29 05:13:53;;;;;;;;;;;;;;;;;;2088907;28;19924;-81
2023/07/29 05:15:14;;;;;;;;;;;;;;;;;;2091579;28;19909;-81
2023/07/29 05:16:34;;;;;;;;;;;;;;;;;;2091191;28;19917;-81
2023/07/29 05:17:55;;;;;;;;;;;;;;;;;;2093686;28;20339;-81
2023/07/29 05:19:16;;;;;;;;;;;;;;;;;;2083571;28;19932;-81
2023/07/29 05:20:36;;;;;;;;;;;;;;;;;;2091607;28;19923;-81
2023/07/29 05:21:57;;;;;;;;;;;;;;;;;;2095577;28;19919;-82
2023/07/29 05:23:18;;;;;;;;;;;;;;;;;;2083305;28;19920;-81
2023/07/29 05:24:38;;;;;;;;;;;;;;;;;;2090360;28;19912;-81
2023/07/29 05:25:59;;;;;;;;;;;;;;;;;;2090920;28;19909;-80
2023/07/29 05:27:20;;;;;;;;;;;;;;;;;;2081893;28;19921;-80
2023/07/29 05:28:40;;;;;;;;;;;;;;;;;;2091570;28;20360;-80
2023/07/29 05:30:01;;;;;;;;;;;;;;;;;;2089352;28;20034;-81
2023/07/29 05:31:22;;;;;;;;;;;;;;;;;;2083521;28;19916;-80
2023/07/29 05:32:42;;;;;;;;;;;;;;;;;;2088099;28;19920;-80
2023/07/29 05:34:04;;;;;;;;;;;;;;;;;;2091698;28;19916;-80
2023/07/29 05:35:24;;;;;;;;;;;;;;;;;;2095955;28;19912;-79
2023/07/29 05:36:45;;;;;;;;;;;;;;;;;;2086977;28;19913;-80
2023/07/29 05:38:08;;;;;;;;;;;;;;;;;;2083827;28;19932;-79
2023/07/29 05:39:28;;;;;;;;;;;;;;;;;;2081608;28;19913;-79
2023/07/29 05:42:28;;;;;;;;;;;;;;;;;;2081264;28;19967;-79
2023/07/29 05:43:49;;;;;;;;;;;;;;;;;;2081038;28;20051;-73
2023/07/29 05:45:10;;;;;;;;;;;;;;;;;;2087528;28;19920;-73
2023/07/29 05:46:31;;;;;;;;;;;;;;;;;;2086828;28;19913;-73
2023/07/29 05:50:12;;;;;;;;;;;;;;;;;;2087796;23;19937;-73
2023/07/29 05:51:33;;;;;;;;;;;;;;;;;;2071515;28;19913;-72
2023/07/29 05:52:54;;;;;;;;;;;;;;;;;;2050258;28;19986;-73
2023/07/29 05:54:14;;;;;;;;;;;;;;;;;;2053949;28;19918;-72
2023/07/29 05:55:35;;;;;;;;;;;;;;;;;;2062987;28;20495;-73
2023/07/29 05:56:56;;;;;;;;;;;;;;;;;;2066107;28;19910;-73
2023/07/29 05:58:16;;;;;;;;;;;;;;;;;;2065486;28;20376;-73
2023/07/29 05:59:37;;;;;;;;;;;;;;;;;;2052780;28;19914;-74
2023/07/29 06:00:58;;;;;;;;;;;;;;;;;;2057503;28;19918;-73
2023/07/29 06:02:19;;;;;;;;;;;;;;;;;;2068217;28;19917;-72
2023/07/29 06:03:39;;;;;;;;;;;;;;;;;;2061608;28;19985;-73
2023/07/29 06:05:02;;;;;;;;;;;;;;;;;;2069302;28;19917;-73
2023/07/29 06:06:23;;;;;;;;;;;;;;;;;;2064602;28;19980;-73
2023/07/29 06:07:44;;;;;;;;;;;;;;;;;;2064388;28;19968;-73
2023/07/29 06:09:05;;;;;;;;;;;;;;;;;;2067046;28;20964;-72
2023/07/29 06:10:26;;;;;;;;;;;;;;;;;;2062880;28;19988;-73
2023/07/29 06:11:47;;;;;;;;;;;;;;;;;;2064578;28;19914;-76
2023/07/29 06:13:08;;;;;;;;;;;;;;;;;;2054838;28;19929;-72
2023/07/29 06:14:28;;;;;;;;;;;;;;;;;;2063420;28;19945;-75
2023/07/29 06:15:49;;;;;;;;;;;;;;;;;;2071015;28;19914;-72
2023/07/29 06:17:11;;;;;;;;;;;;;;;;;;2065504;28;19917;-74
2023/07/29 06:18:32;;;;;;;;;;;;;;;;;;2065723;28;19914;-77
2023/07/29 06:19:52;;;;;;;;;;;;;;;;;;2065839;28;19921;-72
2023/07/29 06:21:16;;;;;;;;;;;;;;;;;;2061404;28;21353;-73
2023/07/29 06:22:37;;;;;;;;;;;;;;;;;;2054658;28;19976;-72
2023/07/29 06:23:58;;;;;;;;;;;;;;;;;;2063663;28;19984;-71
2023/07/29 06:25:18;;;;;;;;;;;;;;;;;;2055372;28;19922;-73
2023/07/29 06:26:39;;;;;;;;;;;;;;;;;;2061440;28;19960;-74
2023/07/29 06:28:00;;;;;;;;;;;;;;;;;;2064712;28;19964;-74
2023/07/29 06:29:21;;;;;;;;;;;;;;;;;;2057331;28;19917;-74
2023/07/29 06:30:41;;;;;;;;;;;;;;;;;;2057986;28;21880;-75
2023/07/29 06:32:02;;;;;;;;;;;;;;;;;;2058735;28;19961;-73
2023/07/29 06:33:23;;;;;;;;;;;;;;;;;;2053435;28;20081;-73
2023/07/29 06:34:43;;;;;;;;;;;;;;;;;;2052303;28;20191;-74
2023/07/29 06:36:04;;;;;;;;;;;;;;;;;;2055586;28;19918;-74
2023/07/29 06:37:25;;;;;;;;;;;;;;;;;;2067081;28;19924;-73
2023/07/29 06:38:46;;;;;;;;;;;;;;;;;;2065838;28;19951;-73
2023/07/29 06:40:06;;;;;;;;;;;;;;;;;;2055975;28;20008;-73
2023/07/29 06:41:27;;;;;;;;;;;;;;;;;;2062042;28;20296;-75
2023/07/29 06:42:48;;;;;;;;;;;;;;;;;;2067774;28;19929;-72
2023/07/29 06:44:08;;;;;;;;;;;;;;;;;;2059096;28;20324;-72
2023/07/29 06:45:29;;;;;;;;;;;;;;;;;;2064077;28;19933;-72
2023/07/29 06:46:50;;;;;;;;;;;;;;;;;;2066212;28;19917;-72
2023/07/29 06:48:10;;;;;;;;;;;;;;;;;;2066408;28;20549;-75
2023/07/29 06:49:31;;;;;;;;;;;;;;;;;;2053963;28;20429;-74
2023/07/29 06:50:52;;;;;;;;;;;;;;;;;;2060488;28;19933;-73
2023/07/29 06:52:13;;;;;;;;;;;;;;;;;;2068928;28;19917;-74
2023/07/29 06:53:33;;;;;;;;;;;;;;;;;;2057496;28;19918;-72
2023/07/29 06:54:54;;;;;;;;;;;;;;;;;;2060430;28;19975;-75
2023/07/29 06:56:15;;;;;;;;;;;;;;;;;;2062788;28;20021;-73
2023/07/29 06:57:35;;;;;;;;;;;;;;;;;;2060627;28;19922;-72
2023/07/29 06:58:56;;;;;;;;;;;;;;;;;;2063989;28;21193;-74
2023/07/29 07:00:17;;;;;;;;;;;;;;;;;;2064244;28;20623;-72
2023/07/29 07:01:38;;;;;;;;;;;;;;;;;;2063424;28;19914;-74
2023/07/29 07:02:58;;;;;;;;;;;;;;;;;;2057071;28;19930;-74
2023/07/29 07:04:19;;;;;;;;;;;;;;;;;;2056112;28;19940;-73
2023/07/29 07:05:40;;;;;;;;;;;;;;;;;;2065043;28;19918;-73
2023/07/29 07:07:01;;;;;;;;;;;;;;;;;;2065956;28;19933;-74
2023/07/29 07:08:21;;;;;;;;;;;;;;;;;;2066591;28;19961;-74
2023/07/29 07:09:42;;;;;;;;;;;;;;;;;;2065808;28;20223;-72
2023/07/29 07:11:03;;;;;;;;;;;;;;;;;;2056857;28;19998;-73
2023/07/29 07:12:23;;;;;;;;;;;;;;;;;;2061576;28;19963;-72
2023/07/29 07:13:44;;;;;;;;;;;;;;;;;;2065256;28;20435;-74
2023/07/29 07:15:05;;;;;;;;;;;;;;;;;;2058212;28;19913;-75
2023/07/29 07:16:26;;;;;;;;;;;;;;;;;;2059937;28;19976;-73
2023/07/29 07:17:46;;;;;;;;;;;;;;;;;;2067074;28;19913;-72
2023/07/29 07:19:07;;;;;;;;;;;;;;;;;;2071955;28;19914;-72
2023/07/29 07:20:28;;;;;;;;;;;;;;;;;;2062202;28;19918;-72
2023/07/29 07:21:48;;;;;;;;;;;;;;;;;;2062680;28;20300;-73
2023/07/29 07:23:11;;;;;;;;;;;;;;;;;;2063766;28;19989;-74
2023/07/29 07:24:32;;;;;;;;;;;;;;;;;;2065960;28;20314;-72
2023/07/29 07:25:53;;;;;;;;;;;;;;;;;;2066702;28;19909;-73
2023/07/29 07:27:14;;;;;;;;;;;;;;;;;;2060235;28;19914;-72
2023/07/29 07:28:34;;;;;;;;;;;;;;;;;;2051679;28;19922;-74
2023/07/29 07:29:55;;;;;;;;;;;;;;;;;;2065878;28;20004;-73
2023/07/29 07:31:16;;;;;;;;;;;;;;;;;;2058822;28;19963;-73
2023/07/29 07:32:37;;;;;;;;;;;;;;;;;;2061905;28;20336;-74
2023/07/29 07:33:58;;;;;;;;;;;;;;;;;;2056448;28;19993;-76
2023/07/29 07:35:18;;;;;;;;;;;;;;;;;;2054614;28;20392;-73
2023/07/29 07:36:39;;;;;;;;;;;;;;;;;;2060707;28;19980;-73
2023/07/29 07:38:02;;;;;;;;;;;;;;;;;;2057475;28;19914;-73
2023/07/29 07:39:22;;;;;;;;;;;;;;;;;;2068136;28;19936;-73
2023/07/29 07:40:43;;;;;;;;;;;;;;;;;;2071103;28;19917;-73
2023/07/29 07:42:04;;;;;;;;;;;;;;;;;;2061240;28;19969;-72
2023/07/29 07:43:24;;;;;;;;;;;;;;;;;;2063859;28;19964;-73
2023/07/29 07:44:45;;;;;;;;;;;;;;;;;;2065573;28;19972;-73
2023/07/29 07:46:06;;;;;;;;;;;;;;;;;;2070717;28;20398;-73
2023/07/29 07:47:26;;;;;;;;;;;;;;;;;;2063261;28;19925;-73
2023/07/29 07:48:47;;;;;;;;;;;;;;;;;;2069783;28;19914;-73
2023/07/29 07:50:08;;;;;;;;;;;;;;;;;;2078255;28;19928;-73
2023/07/29 07:51:28;;;;;;;;;;;;;;;;;;2068543;28;19920;-73
2023/07/29 07:52:49;;;;;;;;;;;;;;;;;;2071503;28;19928;-74
2023/07/29 07:54:10;;;;;;;;;;;;;;;;;;2056802;28;19944;-73
2023/07/29 07:55:30;;;;;;;;;;;;;;;;;;2062451;28;20346;-74
2023/07/29 07:56:51;;;;;;;;;;;;;;;;;;2048667;28;19914;-74
2023/07/29 07:58:13;;;;;;;;;;;;;;;;;;2053206;28;20365;-73
2023/07/29 07:59:33;;;;;;;;;;;;;;;;;;2052802;28;20377;-73
2023/07/29 08:00:54;;;;;;;;;;;;;;;;;;2056584;28;20329;-75
2023/07/29 08:02:15;;;;;;;;;;;;;;;;;;2048758;28;19918;-75
2023/07/29 08:03:36;;;;;;;;;;;;;;;;;;2063530;28;19930;-73
2023/07/29 08:04:56;;;;;;;;;;;;;;;;;;2062797;28;19976;-73
2023/07/29 08:06:17;;;;;;;;;;;;;;;;;;2063080;28;19993;-74
2023/07/29 08:07:38;;;;;;;;;;;;;;;;;;2055710;28;20302;-72
2023/07/29 08:08:58;;;;;;;;;;;;;;;;;;2066949;28;19959;-73
2023/07/29 08:10:19;;;;;;;;;;;;;;;;;;2063112;28;19925;-71
2023/07/29 08:11:40;;;;;;;;;;;;;;;;;;2064262;28;19914;-72
2023/07/29 08:13:00;;;;;;;;;;;;;;;;;;2069666;28;19917;-71
2023/07/29 08:14:21;;;;;;;;;;;;;;;;;;2068770;28;19921;-71
2023/07/29 08:15:42;;;;;;;;;;;;;;;;;;2063218;28;20412;-71
2023/07/29 08:17:02;;;;;;;;;;;;;;;;;;2056350;28;19918;-71
2023/07/29 08:18:23;;;;;;;;;;;;;;;;;;2065440;28;19917;-72
2023/07/29 08:19:44;;;;;;;;;;;;;;;;;;2071245;28;19921;-71
2023/07/29 08:21:05;;;;;;;;;;;;;;;;;;2070393;28;19922;-72
2023/07/29 08:22:25;;;;;;;;;;;;;;;;;;2069840;28;19922;-72
2023/07/29 08:23:46;;;;;;;;;;;;;;;;;;2060989;28;20032;-72
2023/07/29 08:25:07;;;;;;;;;;;;;;;;;;2061927;28;19913;-71
2023/07/29 08:26:28;;;;;;;;;;;;;;;;;;2062680;28;19910;-72
2023/07/29 08:27:48;;;;;;;;;;;;;;;;;;2060799;28;20400;-71
2023/07/29 08:29:09;;;;;;;;;;;;;;;;;;2059404;28;19913;-72
2023/07/29 08:30:30;;;;;;;;;;;;;;;;;;2059500;28;19914;-72
2023/07/29 08:31:51;;;;;;;;;;;;;;;;;;2051714;28;19914;-71
2023/07/29 08:33:12;;;;;;;;;;;;;;;;;;2061838;28;20404;-71
2023/07/29 08:34:32;;;;;;;;;;;;;;;;;;2070194;28;20288;-72
2023/07/29 08:35:53;;;;;;;;;;;;;;;;;;2070145;28;19967;-72
2023/07/29 08:37:14;;;;;;;;;;;;;;;;;;2069799;28;20333;-72
2023/07/29 08:38:34;;;;;;;;;;;;;;;;;;2071987;28;19921;-72
2023/07/29 08:39:55;;;;;;;;;;;;;;;;;;2078828;28;20380;-72
2023/07/29 08:41:16;;;;;;;;;;;;;;;;;;2070083;28;19968;-72
2023/07/29 08:42:37;;;;;;;;;;;;;;;;;;2068815;28;20387;-71
2023/07/29 08:43:57;;;;;;;;;;;;;;;;;;2073275;28;19929;-73
2023/07/29 08:45:18;;;;;;;;;;;;;;;;;;2077542;28;20356;-72
2023/07/29 08:46:39;;;;;;;;;;;;;;;;;;2078816;28;19910;-71
2023/07/29 08:47:59;;;;;;;;;;;;;;;;;;2069913;28;19914;-71
2023/07/29 08:49:20;;;;;;;;;;;;;;;;;;2068415;28;19917;-76
2023/07/29 08:50:41;;;;;;;;;;;;;;;;;;2072912;28;19929;-74
2023/07/29 08:52:02;;;;;;;;;;;;;;;;;;2078651;28;19985;-72
2023/07/29 08:53:23;;;;;;;;;;;;;;;;;;2064639;28;19926;-75
2023/07/29 08:54:43;;;;;;;;;;;;;;;;;;2071178;28;19925;-73
2023/07/29 08:56:05;;;;;;;;;;;;;;;;;;2076772;28;20312;-73
2023/07/29 08:57:26;;;;;;;;;;;;;;;;;;2077293;28;20276;-74
2023/07/29 08:58:46;;;;;;;;;;;;;;;;;;2077715;28;19917;-73
2023/07/29 09:00:07;;;;;;;;;;;;;;;;;;2075538;28;20284;-74
2023/07/29 09:01:30;;;;;;;;;;;;;;;;;;2069868;28;19909;-73
2023/07/29 09:02:51;;;;;;;;;;;;;;;;;;2064670;28;19910;-73
2023/07/29 09:04:11;;;;;;;;;;;;;;;;;;2070597;28;19917;-75
2023/07/29 09:05:32;;;;;;;;;;;;;;;;;;2075587;28;19999;-74
2023/07/29 09:06:53;;;;;;;;;;;;;;;;;;2068831;28;19921;-74
2023/07/29 09:08:13;;;;;;;;;;;;;;;;;;2074229;28;19928;-73
2023/07/29 09:09:34;;;;;;;;;;;;;;;;;;2079408;28;19920;-74
2023/07/29 09:10:55;;;;;;;;;;;;;;;;;;2078187;28;19913;-74
2023/07/29 09:12:16;;;;;;;;;;;;;;;;;;2072949;28;19917;-74
2023/07/29 09:13:36;;;;;;;;;;;;;;;;;;2075043;28;19925;-74
2023/07/29 09:14:57;;;;;;;;;;;;;;;;;;2069449;28;19910;-74